Other Surface Observations
Issued by NWS Great Falls, MT

Home | Current Version | Previous Version | Text Only | Print | Product List | Glossary On
Versions: 1 2 3 4 5 6 7 8 9 10 11 12 13 14 15 16 17 18 19 20 21 22 23 24 25 26 27 28 29 30 31 32 33 34 35 36 37 38 39 40 41 42 43 44 45 46 47 48 49 50
000
SXUS55 KTFX 061114
OSOTFX
AREA AWOS OBSERVATIONS
NATIONAL WEATHER SERVICE GREAT FALLS MT
0514 AM MDT FRI MAY 06 2016

METAR KPO1 061115Z AUTO 34006KT 10SM 12/06 A3001 RMK POPLAR
METAR K1S3 061115Z AUTO 34011G15KT 4SM 16/06 A2996 RMK FORSYTH
METAR K38S 061115Z AUTO 36009KT 10SM 09/04 A3013 RMK DEER LODGE
METAR K3U3 061115Z AUTO 35011KT 10SM 09/03 A3011 RMK ANACONDA
METAR K6S5 061115Z AUTO 33009KT 10SM 12/05 A3003 RMK HAMILTON
METAR KS59 061115Z AUTO 00000KT 10SM 14/09 A3010 RMK LIBBY
METAR K88M 061115Z AUTO 00000KT 10SM 11/07 A3015 RMK EUREKA



USA.gov is the U.S. government's official web portal to all federal, state and local government web resources and services.